Pagrindinis puslapis
METAR-TAF:

METAR-TAF

Oro uostai :

Gothenburg-Landvetter, Švedija

platuma: 57-40N, ilguma: 012-18E, Aukštis: 169 m

Dabartinis oras

Ataskaita buvo paskelbta 1 valandą ir 31 minutes, ne 01:50 UTC
Vėjas 1 kt nuo kintamojo kryptimis
Temperatūra -6°C
Drėgmė 93%
Slėgis 1005 hPa
Matomumas 10 km arba daugiau
nėra debesų žemiau 1500 m ir nėra kamuolinių lietaus debesų

METAR: ESGG 270150Z VRB01KT CAVOK M06/M07 Q1005

Laikas: 05:21 (03:21 UTC)

Prognozė

Ataskaita buvo paskelbta 51 minutes, ne 02:30 UTC
Prognozė galioja nuo 27 metu 03 UTC su 28 metu 03 UTC
Vėjas 2 kt iš Šiaurės
Matomumas 10 km arba daugiau
nėra debesų žemiau 1500 m ir nėra kamuolinių lietaus debesų
Tikimybė 40%
nuo 27 metu 14 UTC su 27 metu 18 UTC
Matomumas: 3000 m
Išsisklaidę debesys ne aukštis 4000 ft, Liūtiniai kamuoliniai debesys.
sniegas

TAF: ESGG 270230Z 2703/2803 35002KT CAVOK PROB40 2714/2718 3000 SHSN SCT040CB

Orai ataskaitas ir orų prognozės (METAR, TAF).

turimą stotys yra geltonos ir raudonos taškus žemėlapyje.

Perkelti pele per norėdami pamatyti stoties vardą.

Tada spustelėkite, norėdami matyti oro stebėjimo ir prognozės.

Norėdami pakeisti žemėlapį: spustelėkite ant žalios mygtukų su juodo kryžiaus žemyn,; žalią mygtuką su brūkšneliu, jei norite nutolinti; arba žalių rodyklių gretimoms žemėlapius.


METAR-TAF: